Disclaimer

    

CYCD

METAR CYCD 301500Z 15003KT 30SM SCT150 OVC250 15/13 A2978 RMK AC3CI5 SLP085 DENSITY ALT 300FT=

METAR CYCD 301400Z 00000KT 30SM SCT090 BKN150 OVC250 14/13 A2980 RMK AC3AC3CI2 SLP093 DENSITY ALT 100FT=

METAR CYCD 301300Z VRB02KT 30SM SCT090 BKN150 13/12 A2979 RMK AC3AC4 SLP090=

TAF CYCD 301438Z 3015/3103 VRB03KT P6SM SCT090 BKN150 TEMPO 3015/3020 P6SM -SHRA BKN090
FM302000 05006KT P6SM FEW090 SCT120 TEMPO 3020/3103 BKN120 RMK NXT FCST BY 301800Z=

CYVR

METAR CYVR 301500Z 30009KT 270V360 20SM FEW110 SCT130 BKN180 OVC220 16/13 A2977 RMK AC2AC1AS2CS3 PRESFR SLP082 DENSITY ALT 300FT=

METAR CYVR 301400Z 09004KT 20SM FEW110 SCT130 BKN210 BKN230 14/10 A2979 RMK AC2AC2CC1CS2 SLP088 DENSITY ALT 100FT=

METAR CYVR 301300Z 09004KT 20SM FEW140 SCT210 BKN230 OVC240 12/09 A2979 RMK AC2CC1CS2CI3 SLP090=

TAF CYVR 301438Z 3015/3118 VRB03KT P6SM FEW080 SCT150 BKN200 TEMPO 3015/3018 P6SM -SHRA BKN080
FM301800 28007KT P6SM -SHRA BKN040 TEMPO 3018/3022 P6SM NSW SCT040 BKN080 BECMG 3019/3021 20008KT
FM302200 20008KT P6SM -RA SCT020 BKN040 TEMPO 3022/3106 5SM -SHRA BR BKN020 BECMG 3104/3106 09012KT
FM310600 09012KT P6SM BKN050 TEMPO 3106/3116 P6SM -RA BECMG 3114/3116 09006KT
FM311600 09006KT P6SM SCT015 BKN030 BECMG 3116/3118 29008KT RMK NXT FCST BY 301800Z=

CYXX

METAR CYXX 301500Z 22005KT 200V270 30SM SCT110 BKN140 BKN220 13/10 A2977 RMK CU4AS1CI2 SLP083 DENSITY ALT 200FT=

METAR CYXX 301400Z VRB02KT 30SM FEW110 SCT120 OVC140 OVC220 12/10 A2979 RMK ACC1AC3AS4CI1 CI TR HZ SLP090=

METAR CYXX 301300Z 24003KT 30SM SCT100 BKN120 BKN210 OVC250 12/08 A2979 RMK ACC3AC2CS2CI1 SLP091=

TAF CYXX 301140Z 3012/3112 22005KT P6SM SCT140 BKN200
FM301400 22008KT P6SM FEW060 BKN100 TEMPO 3014/3017 P6SM -SHRA BKN060
FM301700 22012KT P6SM -SHRA SCT030 BKN060 TEMPO 3017/3020 5SM -SHRA BR VCTS BKN030CB
FM302000 20012KT P6SM -RA SCT020 BKN040 TEMPO 3020/3104 5SM -SHRA BR VCTS BKN020CB BECMG 3100/3102 20015KT
FM310400 18010KT P6SM BKN050 TEMPO 3104/3111 P6SM -RA
FM311100 18008KT P6SM -RA SCT015 BKN030 RMK NXT FCST BY 301800Z=

Supplemental information

Lower mainland ATIS: 1-877-517-2847

CZBB (Boundary Bay) current winds

Upper winds (Vancouver)

Data fromValid at300060009000
30120030180099001808+071927+04
30120031000031199900+062315+02
30120031120030172608+022913-03

NOTAMs

On October 10, 2019, NAV CANADA changed to the ICAO NOTAM format. They are now available only through Collaborative Flight Planning Services (CFPS) (plan.navcanada.ca). I'm working to update this site to pull in the relevant NOTAMs in the new format.